createdAt,value
2022-08-22T00:02:41.977Z,20.74
2022-08-22T00:03:07.257Z,21.72
2022-08-22T00:03:11.263Z,13.77
2022-08-22T00:04:52.751Z,13.99
2022-08-22T00:14:12.726Z,14.03
2022-08-22T00:15:42.181Z,14.11
2022-08-22T00:25:25.546Z,13.77
2022-08-22T00:26:25.704Z,13.75
2022-08-22T00:42:29.523Z,13.50
2022-08-22T00:43:25.972Z,13.57
2022-08-22T00:44:24.975Z,13.59
2022-08-22T00:45:24.810Z,13.49
2022-08-22T00:46:24.737Z,13.41
2022-08-22T00:47:24.765Z,13.37
2022-08-22T00:48:24.737Z,13.44
2022-08-22T00:49:25.447Z,13.38
2022-08-22T00:50:25.782Z,13.27
2022-08-22T01:00:44.231Z,13.23
2022-08-22T01:04:22.020Z,13.23
2022-08-22T01:05:22.264Z,13.09
2022-08-22T01:06:21.991Z,13.15
2022-08-22T01:10:09.451Z,13.30
2022-08-22T01:11:09.518Z,13.37
2022-08-22T01:12:11.002Z,13.39
2022-08-22T01:13:10.762Z,13.47
2022-08-22T01:14:10.530Z,13.65
2022-08-22T01:15:10.730Z,13.68
2022-08-22T01:16:10.630Z,13.67
2022-08-22T01:17:10.729Z,13.72
2022-08-22T01:22:18.190Z,13.70
2022-08-22T01:27:58.667Z,12.83
2022-08-22T01:29:00.176Z,12.87
2022-08-22T01:30:00.016Z,12.83
2022-08-22T01:30:59.768Z,12.73
2022-08-22T01:31:59.796Z,12.78
2022-08-22T01:42:15.839Z,12.93
2022-08-22T01:43:17.357Z,12.87
2022-08-22T01:44:17.115Z,13.00
2022-08-22T01:45:17.037Z,13.03
2022-08-22T01:46:20.731Z,13.09
2022-08-22T01:50:29.271Z,12.87
2022-08-22T01:53:19.852Z,12.75
2022-08-22T01:54:19.860Z,12.68
2022-08-22T01:55:27.528Z,12.47
2022-08-22T01:56:19.923Z,12.42
2022-08-22T01:57:20.130Z,12.27
2022-08-22T01:58:19.829Z,12.27
2022-08-22T02:01:12.016Z,12.09
2022-08-22T02:05:56.844Z,12.06
2022-08-22T02:11:08.885Z,11.86
2022-08-22T02:12:13.870Z,11.86
2022-08-22T02:13:09.928Z,11.91
2022-08-22T02:14:08.889Z,11.97
2022-08-22T02:15:16.568Z,12.00
2022-08-22T02:16:08.898Z,11.91
2022-08-22T02:21:42.681Z,11.77
2022-08-22T02:22:44.391Z,11.65
2022-08-22T02:23:44.062Z,11.62
2022-08-22T02:24:43.893Z,11.59
2022-08-22T02:25:43.953Z,11.63
2022-08-22T02:26:43.848Z,11.55
2022-08-22T02:27:43.842Z,11.63
2022-08-22T02:28:57.144Z,11.68
2022-08-22T02:29:44.786Z,11.60
2022-08-22T02:30:43.810Z,11.65
2022-08-22T02:31:43.774Z,11.70
2022-08-22T02:45:33.856Z,11.52
2022-08-22T02:48:26.339Z,11.62
2022-08-22T02:52:11.910Z,11.66
2022-08-22T02:53:11.957Z,11.62
2022-08-22T02:54:11.888Z,11.59
2022-08-22T02:55:11.982Z,11.65
2022-08-22T02:56:13.199Z,11.73
2022-08-22T02:57:14.410Z,11.81
2022-08-22T02:58:13.132Z,11.84
2022-08-22T02:59:13.093Z,11.84
2022-08-22T03:00:32.003Z,11.78
2022-08-22T03:01:14.681Z,11.81
2022-08-22T03:02:13.051Z,11.78
2022-08-22T03:03:12.940Z,11.75
2022-08-22T03:04:47.696Z,11.91
2022-08-22T03:05:13.234Z,11.90
2022-08-22T03:06:13.169Z,11.87
2022-08-22T03:07:12.973Z,11.77
2022-08-22T03:10:21.140Z,11.63
2022-08-22T03:18:49.991Z,11.97
2022-08-22T03:20:23.703Z,12.02
2022-08-22T03:25:25.491Z,11.83
2022-08-22T03:29:10.629Z,11.72
2022-08-22T03:33:03.491Z,11.86
2022-08-22T03:35:43.702Z,11.48
2022-08-22T03:36:43.725Z,11.40
2022-08-22T03:37:43.695Z,11.36
2022-08-22T03:38:43.701Z,11.19
2022-08-22T03:39:43.698Z,11.19
2022-08-22T03:40:44.868Z,11.17
2022-08-22T03:41:44.835Z,11.32
2022-08-22T03:42:44.833Z,11.19
2022-08-22T03:43:44.871Z,11.30
2022-08-22T03:44:44.807Z,11.35
2022-08-22T03:45:44.848Z,11.32
2022-08-22T03:46:44.780Z,11.33
2022-08-22T03:47:44.757Z,11.35
2022-08-22T03:48:44.809Z,11.43
2022-08-22T03:49:44.797Z,11.29
2022-08-22T03:50:44.770Z,11.33
2022-08-22T03:51:44.745Z,11.41
2022-08-22T03:52:44.714Z,11.51
2022-08-22T03:53:44.727Z,11.50
2022-08-22T03:54:44.704Z,11.43
2022-08-22T03:55:44.707Z,11.45
2022-08-22T03:56:44.738Z,11.40
2022-08-22T03:57:44.684Z,11.29
2022-08-22T03:58:44.699Z,11.35
2022-08-22T03:59:44.656Z,11.47
2022-08-22T04:00:44.671Z,11.47
2022-08-22T04:01:44.643Z,11.65
2022-08-22T04:02:44.625Z,11.68
2022-08-22T04:03:44.667Z,11.75
2022-08-22T04:04:44.677Z,11.86
2022-08-22T04:05:44.607Z,11.88
2022-08-22T04:06:44.593Z,12.06
2022-08-22T04:07:44.576Z,12.12
2022-08-22T04:08:44.911Z,12.07
2022-08-22T04:09:44.576Z,12.03
2022-08-22T04:10:44.570Z,12.06
2022-08-22T04:11:44.541Z,12.04
2022-08-22T04:12:44.509Z,12.04
2022-08-22T04:13:44.568Z,12.09
2022-08-22T04:14:44.471Z,12.09
2022-08-22T04:15:44.515Z,12.17
2022-08-22T04:16:44.498Z,12.12
2022-08-22T04:17:44.501Z,12.15
2022-08-22T04:18:45.608Z,12.06
2022-08-22T04:19:44.533Z,12.03
2022-08-22T04:20:44.415Z,12.06
2022-08-22T04:21:44.431Z,12.06
2022-08-22T04:22:44.452Z,12.00
2022-08-22T04:23:44.469Z,11.73
2022-08-22T04:24:44.420Z,11.72
2022-08-22T04:25:45.428Z,11.62
2022-08-22T04:26:44.426Z,11.44
2022-08-22T04:27:44.339Z,11.33
2022-08-22T04:28:44.402Z,11.37
2022-08-22T04:29:45.038Z,11.40
2022-08-22T04:30:44.342Z,11.30
2022-08-22T04:31:44.346Z,11.33
2022-08-22T04:32:44.389Z,11.37
2022-08-22T04:33:44.335Z,11.18
2022-08-22T04:34:44.335Z,11.30
2022-08-22T04:35:44.257Z,11.25
2022-08-22T04:36:44.279Z,11.15
2022-08-22T04:37:44.308Z,11.19
2022-08-22T04:38:44.289Z,11.17
2022-08-22T04:39:44.308Z,11.22
2022-08-22T04:40:44.272Z,11.29
2022-08-22T04:41:44.263Z,11.35
2022-08-22T04:42:44.231Z,11.32
2022-08-22T04:43:44.217Z,11.45
2022-08-22T04:44:44.196Z,11.40
2022-08-22T04:45:44.208Z,11.33
2022-08-22T04:46:44.164Z,11.32
2022-08-22T04:47:44.343Z,11.32
2022-08-22T04:48:45.177Z,11.30
2022-08-22T04:49:44.139Z,11.35
2022-08-22T04:50:44.171Z,11.36
2022-08-22T04:51:44.165Z,11.36
2022-08-22T04:52:44.142Z,11.47
2022-08-22T04:53:44.116Z,11.54
2022-08-22T04:54:44.086Z,11.59
2022-08-22T04:55:44.087Z,11.66
2022-08-22T04:56:44.088Z,11.73
2022-08-22T04:57:44.097Z,11.81
2022-08-22T04:58:44.059Z,11.87
2022-08-22T04:59:44.078Z,11.87
2022-08-22T05:00:44.056Z,11.99
2022-08-22T05:01:44.092Z,11.91
2022-08-22T05:02:44.051Z,11.95
2022-08-22T05:03:45.047Z,12.15
2022-08-22T05:04:45.008Z,12.04
2022-08-22T05:05:44.008Z,12.10
2022-08-22T05:06:44.027Z,12.03
2022-08-22T05:07:44.018Z,12.25
2022-08-22T05:08:43.989Z,12.13
2022-08-22T05:09:43.965Z,12.28
2022-08-22T05:10:43.959Z,12.15
2022-08-22T05:11:43.948Z,12.31
2022-08-22T05:12:43.952Z,12.42
2022-08-22T05:13:43.927Z,12.27
2022-08-22T05:14:43.911Z,12.40
2022-08-22T05:15:44.891Z,12.53
2022-08-22T05:16:43.920Z,12.46
2022-08-22T05:17:43.931Z,12.49
2022-08-22T05:18:43.882Z,12.64
2022-08-22T05:19:43.824Z,12.61
2022-08-22T05:20:43.834Z,12.64
2022-08-22T05:21:43.859Z,12.62
2022-08-22T05:22:43.889Z,12.70
2022-08-22T05:23:43.817Z,12.75
2022-08-22T05:24:43.831Z,12.90
2022-08-22T05:25:43.821Z,12.82
2022-08-22T05:26:43.802Z,12.73
2022-08-22T05:27:43.782Z,12.86
2022-08-22T05:28:43.757Z,12.90
2022-08-22T05:29:43.773Z,12.79
2022-08-22T05:30:43.761Z,12.62
2022-08-22T05:31:43.761Z,12.67
2022-08-22T05:32:43.750Z,12.67
2022-08-22T05:33:43.744Z,12.72
2022-08-22T05:34:43.775Z,12.85
2022-08-22T05:35:48.599Z,12.86
2022-08-22T05:36:45.716Z,12.85
2022-08-22T05:37:43.659Z,12.94
2022-08-22T05:38:43.691Z,12.85
2022-08-22T05:39:43.686Z,12.97
2022-08-22T05:40:43.706Z,12.98
2022-08-22T05:41:43.649Z,13.09
2022-08-22T05:42:43.648Z,13.11
2022-08-22T05:43:43.649Z,13.38
2022-08-22T05:44:43.653Z,13.35
2022-08-22T05:45:43.631Z,13.47
2022-08-22T05:46:43.617Z,13.46
2022-08-22T05:47:43.607Z,13.62
2022-08-22T05:48:43.737Z,13.70
2022-08-22T05:49:43.607Z,13.68
2022-08-22T05:50:43.535Z,13.72
2022-08-22T05:51:43.526Z,13.77
2022-08-22T05:52:43.610Z,13.77
2022-08-22T05:53:43.538Z,13.89
2022-08-22T05:54:43.532Z,13.92
2022-08-22T05:55:43.517Z,14.00
2022-08-22T05:56:43.516Z,13.96
2022-08-22T05:57:43.518Z,14.11
2022-08-22T05:58:43.506Z,14.15
2022-08-22T05:59:43.501Z,14.23
2022-08-22T06:00:43.463Z,14.25
2022-08-22T06:01:43.450Z,14.33
2022-08-22T06:02:43.470Z,14.35
2022-08-22T06:03:43.440Z,14.41
2022-08-22T06:04:43.404Z,14.47
2022-08-22T06:05:43.463Z,14.58
2022-08-22T06:06:43.374Z,14.59
2022-08-22T06:07:43.408Z,14.60
2022-08-22T06:08:43.475Z,14.66
2022-08-22T06:09:43.386Z,14.63
2022-08-22T06:10:43.339Z,14.68
2022-08-22T06:11:44.861Z,14.65
2022-08-22T06:12:44.415Z,14.66
2022-08-22T06:13:43.357Z,14.59
2022-08-22T06:14:43.352Z,14.55
2022-08-22T06:15:43.369Z,14.51
2022-08-22T06:16:48.577Z,14.44
2022-08-22T06:17:43.372Z,14.60
2022-08-22T06:18:43.289Z,14.63
2022-08-22T06:19:43.306Z,14.63
2022-08-22T06:20:43.272Z,14.70
2022-08-22T06:21:43.268Z,14.81
2022-08-22T06:22:43.273Z,14.81
2022-08-22T06:23:43.306Z,14.91
2022-08-22T06:24:43.207Z,14.81
2022-08-22T06:25:43.272Z,14.85
2022-08-22T06:26:45.243Z,14.94
2022-08-22T06:27:44.225Z,15.04
2022-08-22T06:28:46.708Z,15.00
2022-08-22T06:29:44.236Z,15.17
2022-08-22T06:30:43.171Z,15.14
2022-08-22T06:31:43.167Z,15.17
2022-08-22T06:32:59.543Z,15.25
2022-08-22T06:33:45.877Z,15.36
2022-08-22T06:34:44.125Z,15.43
2022-08-22T06:35:43.142Z,15.58
2022-08-22T06:36:43.136Z,15.61
2022-08-22T06:37:43.178Z,15.70
2022-08-22T06:38:43.115Z,15.75
2022-08-22T06:39:44.141Z,15.86
2022-08-22T06:40:43.094Z,16.00
2022-08-22T06:41:43.117Z,16.02
2022-08-22T06:42:43.088Z,16.09
2022-08-22T06:43:43.061Z,16.12
2022-08-22T06:44:43.029Z,16.08
2022-08-22T06:45:43.066Z,16.02
2022-08-22T06:46:43.026Z,16.02
2022-08-22T06:47:43.511Z,16.15
2022-08-22T06:48:44.051Z,16.12
2022-08-22T06:49:43.015Z,16.02
2022-08-22T06:50:43.031Z,16.12
2022-08-22T06:51:42.963Z,16.13
2022-08-22T06:52:43.004Z,16.02
2022-08-22T06:53:47.902Z,16.41
2022-08-22T06:54:43.999Z,16.54
2022-08-22T06:55:42.965Z,16.65
2022-08-22T06:56:42.938Z,16.69
2022-08-22T06:57:42.945Z,16.66
2022-08-22T06:58:42.944Z,16.72
2022-08-22T06:59:42.962Z,16.60
2022-08-22T07:00:42.936Z,16.83
2022-08-22T07:01:42.911Z,16.97
2022-08-22T07:02:42.882Z,16.96
2022-08-22T07:03:42.904Z,17.08
2022-08-22T07:04:42.876Z,17.16
2022-08-22T07:05:42.852Z,17.19
2022-08-22T07:06:42.837Z,17.16
2022-08-22T07:07:42.845Z,17.39
2022-08-22T07:08:42.852Z,17.36
2022-08-22T07:09:42.800Z,17.36
2022-08-22T07:10:42.805Z,17.39
2022-08-22T07:11:42.779Z,17.31
2022-08-22T07:12:42.815Z,17.24
2022-08-22T07:13:43.564Z,17.30
2022-08-22T07:14:42.752Z,17.42
2022-08-22T07:15:42.816Z,17.39
2022-08-22T07:16:42.766Z,17.48
2022-08-22T07:17:42.713Z,17.44
2022-08-22T07:18:42.749Z,17.49
2022-08-22T07:19:42.754Z,17.49
2022-08-22T07:20:42.698Z,17.60
2022-08-22T07:21:42.747Z,17.70
2022-08-22T07:22:43.657Z,17.86
2022-08-22T07:23:42.835Z,18.04
2022-08-22T07:24:42.754Z,17.94
2022-08-22T07:25:42.686Z,18.15
2022-08-22T07:26:42.683Z,18.23
2022-08-22T07:27:42.625Z,18.16
2022-08-22T07:28:51.217Z,18.26
2022-08-22T07:29:43.734Z,18.44
2022-08-22T07:30:42.595Z,18.55
2022-08-22T07:31:42.725Z,18.66
2022-08-22T07:32:42.606Z,18.75
2022-08-22T07:33:42.767Z,18.74
2022-08-22T07:34:42.631Z,18.86
2022-08-22T07:35:42.571Z,18.99
2022-08-22T07:36:44.495Z,19.19
2022-08-22T07:37:42.634Z,19.36
2022-08-22T07:38:42.700Z,19.31
2022-08-22T07:39:42.544Z,19.52
2022-08-22T07:40:43.374Z,19.64
2022-08-22T07:41:42.562Z,19.76
2022-08-22T07:42:42.511Z,19.76
2022-08-22T07:43:42.516Z,19.82
2022-08-22T07:44:42.469Z,19.84
2022-08-22T07:45:42.469Z,20.00
2022-08-22T07:46:42.425Z,19.99
2022-08-22T07:47:42.910Z,20.04
2022-08-22T07:48:59.507Z,19.79
2022-08-22T07:49:49.630Z,20.03
2022-08-22T07:50:43.409Z,19.92
2022-08-22T07:51:42.460Z,19.92
2022-08-22T07:52:42.535Z,19.88
2022-08-22T07:53:42.385Z,19.73
2022-08-22T07:54:42.419Z,19.70
2022-08-22T07:55:49.685Z,19.77
2022-08-22T07:56:43.480Z,19.88
2022-08-22T07:57:42.375Z,19.91
2022-08-22T07:58:42.569Z,20.04
2022-08-22T07:59:42.312Z,20.19
2022-08-22T08:00:42.273Z,20.31
2022-08-22T08:01:42.420Z,20.36
2022-08-22T08:02:42.358Z,20.51
2022-08-22T08:03:42.555Z,20.63
2022-08-22T08:04:42.316Z,20.65
2022-08-22T08:05:42.287Z,20.75
2022-08-22T08:06:42.518Z,20.81
2022-08-22T08:07:42.223Z,20.77
2022-08-22T08:08:42.250Z,20.72
2022-08-22T08:09:42.257Z,20.77
2022-08-22T08:10:42.238Z,20.72
2022-08-22T08:11:42.233Z,20.93
2022-08-22T08:12:42.185Z,21.09
2022-08-22T08:13:42.355Z,21.12
2022-08-22T08:14:42.185Z,21.15
2022-08-22T08:15:42.234Z,21.32
2022-08-22T08:16:42.153Z,21.30
2022-08-22T08:17:42.141Z,21.20
2022-08-22T08:18:42.120Z,21.27
2022-08-22T08:19:42.104Z,21.35
2022-08-22T08:20:43.085Z,21.39
2022-08-22T08:21:42.115Z,21.51
2022-08-22T08:22:42.180Z,21.52
2022-08-22T08:23:42.232Z,21.51
2022-08-22T08:24:42.740Z,21.60
2022-08-22T08:25:42.089Z,21.70
2022-08-22T08:26:42.139Z,21.75
2022-08-22T08:27:42.063Z,21.88
2022-08-22T08:28:42.048Z,21.91
2022-08-22T08:29:42.034Z,22.02
2022-08-22T08:30:42.122Z,22.15
2022-08-22T08:31:43.370Z,22.11
2022-08-22T08:32:41.990Z,22.08
2022-08-22T08:33:43.044Z,22.20
2022-08-22T08:34:41.990Z,22.30
2022-08-22T08:36:01.981Z,22.29
2022-08-22T08:36:42.995Z,22.43
2022-08-22T08:37:42.006Z,22.33
2022-08-22T08:38:42.078Z,22.35
2022-08-22T08:39:41.957Z,22.38
2022-08-22T08:40:41.943Z,22.36
2022-08-22T08:41:41.938Z,22.45
2022-08-22T08:42:41.942Z,22.55
2022-08-22T08:43:42.035Z,22.68
2022-08-22T08:44:41.877Z,22.55
2022-08-22T08:45:42.523Z,22.63
2022-08-22T08:46:41.863Z,22.53
2022-08-22T08:47:42.887Z,22.60
2022-08-22T08:48:41.834Z,22.68
2022-08-22T08:49:42.859Z,22.59
2022-08-22T08:50:43.289Z,22.75
2022-08-22T08:51:41.845Z,22.76
2022-08-22T08:52:41.863Z,22.80
2022-08-22T08:53:42.819Z,23.00
2022-08-22T08:54:41.853Z,22.83
2022-08-22T08:55:41.796Z,22.99
2022-08-22T08:56:42.782Z,23.10
2022-08-22T08:57:43.527Z,23.17
2022-08-22T08:58:41.759Z,23.13
2022-08-22T08:59:44.204Z,22.93
2022-08-22T09:00:41.707Z,22.90
2022-08-22T09:01:42.445Z,22.94
2022-08-22T09:02:42.619Z,23.02
2022-08-22T09:03:41.815Z,23.23
2022-08-22T09:04:41.703Z,23.32
2022-08-22T09:05:41.763Z,23.39
2022-08-22T09:06:42.368Z,23.46
2022-08-22T09:07:41.610Z,23.56
2022-08-22T09:08:42.339Z,23.63
2022-08-22T09:09:41.660Z,23.77
2022-08-22T09:10:41.729Z,23.83
2022-08-22T09:11:42.591Z,23.95
2022-08-22T09:13:42.735Z,24.02
2022-08-22T09:14:41.626Z,23.98
2022-08-22T09:15:41.823Z,24.02
2022-08-22T09:16:45.618Z,23.93
2022-08-22T09:17:42.645Z,24.10
2022-08-22T09:18:41.673Z,24.26
2022-08-22T09:19:41.545Z,24.28
2022-08-22T09:20:42.463Z,24.23
2022-08-22T09:21:41.587Z,24.18
2022-08-22T09:22:50.863Z,24.18
2022-08-22T09:23:42.552Z,24.28
2022-08-22T09:24:41.486Z,24.45
2022-08-22T09:25:41.573Z,24.39
2022-08-22T09:26:41.467Z,24.36
2022-08-22T09:27:41.537Z,24.47
2022-08-22T09:28:41.528Z,24.42
2022-08-22T09:29:55.147Z,24.55
2022-08-22T09:30:42.493Z,24.58
2022-08-22T09:31:51.831Z,24.65
2022-08-22T09:32:42.450Z,24.70
2022-08-22T09:33:41.453Z,24.77
2022-08-22T09:34:41.391Z,24.85
2022-08-22T09:35:41.466Z,24.92
2022-08-22T09:36:41.422Z,25.13
2022-08-22T09:37:41.472Z,25.14
2022-08-22T09:38:47.712Z,25.28
2022-08-22T09:39:42.627Z,25.46
2022-08-22T09:40:41.317Z,25.55
2022-08-22T09:41:41.425Z,25.73
2022-08-22T09:42:44.915Z,25.70
2022-08-22T09:43:45.145Z,25.81
2022-08-22T09:44:42.299Z,25.98
2022-08-22T09:45:41.316Z,25.85
2022-08-22T09:46:41.376Z,25.66
2022-08-22T09:47:41.260Z,25.60
2022-08-22T09:48:42.552Z,25.70
2022-08-22T09:49:41.294Z,25.90
2022-08-22T09:50:41.259Z,25.84
2022-08-22T09:51:41.154Z,25.96
2022-08-22T09:52:42.295Z,26.03
2022-08-22T09:53:41.228Z,26.06
2022-08-22T09:54:41.214Z,26.09
2022-08-22T09:55:41.985Z,26.21
2022-08-22T09:56:41.181Z,26.19
2022-08-22T09:57:41.394Z,26.29
2022-08-22T09:58:41.722Z,26.43
2022-08-22T09:59:42.335Z,26.60
2022-08-22T10:00:41.442Z,26.52
2022-08-22T10:01:42.368Z,26.59
2022-08-22T10:02:43.499Z,26.51
2022-08-22T10:03:41.210Z,26.58
2022-08-22T10:04:42.022Z,26.60
2022-08-22T10:05:44.954Z,26.81
2022-08-22T10:06:41.196Z,26.95
2022-08-22T10:07:41.067Z,27.07
2022-08-22T10:08:41.050Z,27.11
2022-08-22T10:09:41.095Z,27.18
2022-08-22T10:10:42.041Z,27.15
2022-08-22T10:11:42.190Z,27.32
2022-08-22T10:12:41.003Z,27.30
2022-08-22T10:13:41.107Z,27.26
2022-08-22T10:14:40.994Z,27.33
2022-08-22T10:15:41.981Z,27.36
2022-08-22T10:16:40.990Z,27.47
2022-08-22T10:17:41.445Z,27.15
2022-08-22T10:18:43.910Z,27.14
2022-08-22T10:19:41.919Z,27.36
2022-08-22T10:20:40.915Z,27.45
2022-08-22T10:21:40.975Z,27.59
2022-08-22T10:22:40.865Z,27.78
2022-08-22T10:23:40.952Z,27.85
2022-08-22T10:24:43.732Z,27.90
2022-08-22T10:25:42.250Z,27.90
2022-08-22T10:26:40.906Z,27.82
2022-08-22T10:27:40.877Z,27.90
2022-08-22T10:28:40.893Z,28.00
2022-08-22T10:29:40.885Z,28.07
2022-08-22T10:30:40.873Z,28.11
2022-08-22T10:31:45.159Z,28.08
2022-08-22T10:32:42.906Z,27.77
2022-08-22T10:33:40.803Z,27.83
2022-08-22T10:34:41.004Z,27.85
2022-08-22T10:35:40.796Z,28.02
2022-08-22T10:36:40.869Z,28.17
2022-08-22T10:37:40.730Z,27.82
2022-08-22T10:38:46.232Z,27.64
2022-08-22T10:39:41.775Z,27.39
2022-08-22T10:40:40.743Z,27.39
2022-08-22T10:41:41.363Z,27.42
2022-08-22T10:42:40.721Z,27.49
2022-08-22T10:43:41.007Z,27.55
2022-08-22T10:44:40.694Z,27.39
2022-08-22T10:45:40.690Z,27.58
2022-08-22T10:46:42.284Z,27.77
2022-08-22T10:47:40.663Z,28.01
2022-08-22T10:48:40.744Z,28.32
2022-08-22T10:49:40.712Z,28.51
2022-08-22T10:50:40.641Z,28.39
2022-08-22T10:51:40.681Z,28.47
2022-08-22T10:52:40.668Z,28.49
2022-08-22T10:53:41.482Z,28.49
2022-08-22T10:54:40.617Z,28.63
2022-08-22T10:55:41.556Z,28.47
2022-08-22T10:56:40.705Z,28.45
2022-08-22T10:57:40.771Z,28.32
2022-08-22T10:58:40.580Z,28.32
2022-08-22T10:59:40.569Z,28.17
2022-08-22T11:00:46.401Z,28.19
2022-08-22T11:01:42.011Z,28.11
2022-08-22T11:02:42.202Z,28.20
2022-08-22T11:03:40.579Z,28.10
2022-08-22T11:04:41.256Z,28.05
2022-08-22T11:05:40.552Z,28.04
2022-08-22T11:06:40.481Z,28.23
2022-08-22T11:07:40.491Z,28.23
2022-08-22T11:08:40.440Z,28.19
2022-08-22T11:09:40.453Z,28.25
2022-08-22T11:10:40.427Z,28.32
2022-08-22T11:11:40.550Z,28.56
2022-08-22T11:12:41.682Z,28.52
2022-08-22T11:13:42.311Z,28.48
2022-08-22T11:14:40.407Z,28.51
2022-08-22T11:15:40.439Z,28.56
2022-08-22T11:16:41.868Z,28.64
2022-08-22T11:17:44.762Z,28.51
2022-08-22T11:18:42.522Z,28.49
2022-08-22T11:19:41.438Z,28.81
2022-08-22T11:20:40.334Z,28.96
2022-08-22T11:21:40.320Z,29.13
2022-08-22T11:22:40.355Z,29.47
2022-08-22T11:23:40.367Z,29.49
2022-08-22T11:24:45.547Z,29.69
2022-08-22T11:25:41.302Z,29.61
2022-08-22T11:26:46.853Z,29.50
2022-08-22T11:27:42.280Z,29.72
2022-08-22T11:28:40.252Z,29.78
2022-08-22T11:29:41.252Z,29.60
2022-08-22T11:30:44.906Z,29.71
2022-08-22T11:31:40.334Z,29.69
2022-08-22T11:32:41.359Z,29.66
2022-08-22T11:33:47.300Z,29.71
2022-08-22T11:34:41.269Z,29.51
2022-08-22T11:35:41.015Z,29.27
2022-08-22T11:36:40.255Z,29.44
2022-08-22T11:37:43.423Z,29.61
2022-08-22T11:38:40.134Z,29.93
2022-08-22T11:39:40.246Z,29.88
2022-08-22T11:40:40.146Z,29.73
2022-08-22T11:41:40.148Z,29.45
2022-08-22T11:42:47.749Z,28.94
2022-08-22T11:43:41.900Z,28.86
2022-08-22T11:44:50.446Z,28.63
2022-08-22T11:45:40.258Z,28.62
2022-08-22T11:46:41.674Z,28.85
2022-08-22T11:47:40.076Z,29.07
2022-08-22T11:48:40.472Z,29.45
2022-08-22T11:49:41.096Z,29.63
2022-08-22T11:50:42.250Z,29.72
2022-08-22T11:51:41.854Z,29.79
2022-08-22T11:52:40.171Z,29.84
2022-08-22T11:53:40.365Z,29.84
2022-08-22T11:54:39.979Z,29.84
2022-08-22T11:55:40.106Z,30.05
2022-08-22T11:56:40.181Z,30.16
2022-08-22T11:57:44.313Z,30.39
2022-08-22T11:58:40.094Z,30.61
2022-08-22T11:59:40.187Z,30.87
2022-08-22T12:00:40.043Z,31.05
2022-08-22T12:01:40.022Z,30.99
2022-08-22T12:02:40.200Z,30.87
2022-08-22T12:03:40.071Z,30.92
2022-08-22T12:04:44.058Z,30.96
2022-08-22T12:05:40.043Z,31.09
2022-08-22T12:06:40.471Z,30.97
2022-08-22T12:07:40.030Z,30.91
2022-08-22T12:08:39.928Z,30.90
2022-08-22T12:09:40.047Z,30.77
2022-08-22T12:10:39.959Z,30.57
2022-08-22T12:11:39.909Z,30.63
2022-08-22T12:12:39.908Z,30.75
2022-08-22T12:13:39.898Z,30.88
2022-08-22T12:14:39.896Z,30.83
2022-08-22T12:15:40.441Z,30.84
2022-08-22T12:16:40.031Z,30.88
2022-08-22T12:17:55.081Z,30.92
2022-08-22T12:18:41.372Z,30.96
2022-08-22T12:19:58.872Z,31.15
2022-08-22T12:20:45.313Z,30.70
2022-08-22T12:21:39.854Z,30.39
2022-08-22T12:22:39.773Z,30.13
2022-08-22T12:23:48.968Z,30.47
2022-08-22T12:24:40.756Z,30.66
2022-08-22T12:25:44.620Z,30.92
2022-08-22T12:26:40.569Z,31.10
2022-08-22T12:27:39.748Z,30.87
2022-08-22T12:28:40.813Z,31.15
2022-08-22T12:29:44.907Z,31.29
2022-08-22T12:30:40.790Z,31.36
2022-08-22T12:31:39.762Z,31.51
2022-08-22T12:32:39.727Z,31.51
2022-08-22T12:33:39.702Z,31.43
2022-08-22T12:34:39.786Z,31.56
2022-08-22T12:35:39.684Z,31.78
2022-08-22T12:36:39.678Z,31.93
2022-08-22T12:37:52.680Z,32.04
2022-08-22T12:38:40.639Z,32.11
2022-08-22T12:39:41.046Z,32.18
2022-08-22T12:40:39.658Z,32.18
2022-08-22T12:41:39.719Z,32.12
2022-08-22T12:42:41.851Z,32.23
2022-08-22T12:43:39.994Z,32.41
2022-08-22T12:44:39.559Z,32.52
2022-08-22T12:45:40.593Z,32.64
2022-08-22T12:46:40.469Z,32.53
2022-08-22T12:47:42.157Z,32.55
2022-08-22T12:48:39.576Z,32.59
2022-08-22T12:49:39.588Z,32.73
2022-08-22T12:50:39.569Z,32.65
2022-08-22T12:51:39.536Z,32.30
2022-08-22T12:52:39.519Z,32.27
2022-08-22T12:53:39.608Z,32.34
2022-08-22T12:54:39.482Z,32.48
2022-08-22T12:55:39.432Z,32.51
2022-08-22T12:56:39.437Z,32.59
2022-08-22T12:57:39.421Z,32.64
2022-08-22T12:58:39.688Z,32.64
2022-08-22T12:59:39.561Z,32.41
2022-08-22T13:00:39.525Z,32.26
2022-08-22T13:01:43.153Z,32.41
2022-08-22T13:02:40.509Z,32.23
2022-08-22T13:03:39.583Z,32.23
2022-08-22T13:04:39.369Z,32.52
2022-08-22T13:05:41.054Z,32.63
2022-08-22T13:06:39.352Z,32.71
2022-08-22T13:07:39.521Z,32.64
2022-08-22T13:08:39.349Z,32.74
2022-08-22T13:09:39.383Z,32.73
2022-08-22T13:10:39.354Z,32.67
2022-08-22T13:11:39.361Z,32.65
2022-08-22T13:12:40.073Z,32.60
2022-08-22T13:13:40.527Z,32.49
2022-08-22T13:14:39.355Z,32.55
2022-08-22T13:15:39.316Z,32.70
2022-08-22T13:16:39.375Z,32.89
2022-08-22T13:17:40.292Z,32.34
2022-08-22T13:18:39.266Z,31.54
2022-08-22T13:19:40.429Z,31.06
2022-08-22T13:20:39.352Z,31.37
2022-08-22T13:21:39.271Z,31.65
2022-08-22T13:22:39.213Z,31.84
2022-08-22T13:23:41.899Z,31.89
2022-08-22T13:24:39.458Z,31.62
2022-08-22T13:25:39.217Z,31.54
2022-08-22T13:26:43.224Z,31.73
2022-08-22T13:27:40.156Z,31.87
2022-08-22T13:28:40.241Z,31.97
2022-08-22T13:29:42.830Z,32.16
2022-08-22T13:30:39.321Z,32.15
2022-08-22T13:31:39.158Z,32.31
2022-08-22T13:32:39.162Z,32.46
2022-08-22T13:33:40.187Z,32.31
2022-08-22T13:34:40.104Z,32.37
2022-08-22T13:35:39.887Z,32.46
2022-08-22T13:36:40.233Z,32.37
2022-08-22T13:37:40.112Z,32.23
2022-08-22T13:38:39.094Z,32.37
2022-08-22T13:39:39.994Z,32.43
2022-08-22T13:40:39.036Z,32.27
2022-08-22T13:41:42.701Z,32.33
2022-08-22T13:42:40.990Z,32.58
2022-08-22T13:43:39.009Z,32.51
2022-08-22T13:44:39.017Z,32.67
2022-08-22T13:45:38.978Z,32.08
2022-08-22T13:46:57.964Z,32.16
2022-08-22T13:47:40.980Z,32.45
2022-08-22T13:48:38.982Z,32.64
2022-08-22T13:49:38.990Z,32.74
2022-08-22T13:50:53.510Z,32.96
2022-08-22T13:51:39.970Z,32.87
2022-08-22T13:52:38.974Z,32.65
2022-08-22T13:53:39.049Z,32.87
2022-08-22T13:54:40.162Z,32.71
2022-08-22T13:55:43.087Z,32.64
2022-08-22T13:56:38.985Z,32.67
2022-08-22T13:57:41.318Z,32.75
2022-08-22T13:58:39.208Z,32.86
2022-08-22T13:59:50.850Z,32.58
2022-08-22T14:00:48.688Z,32.14
2022-08-22T14:01:39.873Z,32.29
2022-08-22T14:02:38.826Z,32.55
2022-08-22T14:03:38.887Z,32.74
2022-08-22T14:04:38.816Z,33.01
2022-08-22T14:05:38.854Z,33.20
2022-08-22T14:06:41.376Z,33.34
2022-08-22T14:07:38.838Z,33.31
2022-08-22T14:08:38.790Z,33.24
2022-08-22T14:09:39.844Z,33.53
2022-08-22T14:10:38.734Z,33.96
2022-08-22T14:11:38.755Z,34.16
2022-08-22T14:12:50.600Z,34.30
2022-08-22T14:13:39.779Z,34.55
2022-08-22T14:14:38.825Z,34.89
2022-08-22T14:15:44.749Z,35.33
2022-08-22T14:16:39.718Z,35.56
2022-08-22T14:17:42.739Z,36.12
2022-08-22T14:18:45.598Z,35.86
2022-08-22T14:19:53.188Z,35.45
2022-08-22T14:20:39.660Z,35.61
2022-08-22T14:21:40.251Z,35.60
2022-08-22T14:22:38.645Z,36.14
2022-08-22T14:23:39.748Z,36.14
2022-08-22T14:24:41.424Z,36.54
2022-08-22T14:25:39.650Z,36.89
2022-08-22T14:26:47.754Z,37.28
2022-08-22T14:27:39.923Z,36.91
2022-08-22T14:28:38.651Z,36.65
2022-08-22T14:29:38.669Z,36.00
2022-08-22T14:30:40.273Z,35.15
2022-08-22T14:31:40.574Z,34.16
2022-08-22T14:32:41.802Z,33.52
2022-08-22T14:33:40.111Z,33.12
2022-08-22T14:34:38.555Z,32.52
2022-08-22T14:35:38.565Z,32.53
2022-08-22T14:36:38.505Z,32.64
2022-08-22T14:37:39.040Z,32.83
2022-08-22T14:38:38.504Z,33.59
2022-08-22T14:39:42.861Z,33.69
2022-08-22T14:40:39.486Z,33.55
2022-08-22T14:41:55.521Z,33.40
2022-08-22T14:42:39.458Z,33.42
2022-08-22T14:43:40.512Z,33.17
2022-08-22T14:44:38.458Z,33.39
2022-08-22T14:45:38.447Z,33.65
2022-08-22T14:46:38.422Z,33.00
2022-08-22T14:47:55.290Z,33.76
2022-08-22T14:48:40.879Z,34.45
2022-08-22T14:49:39.478Z,35.02
2022-08-22T14:50:38.378Z,35.73
2022-08-22T14:51:38.431Z,35.42
2022-08-22T14:52:38.376Z,35.74
2022-08-22T14:53:38.620Z,36.42
2022-08-22T14:54:38.386Z,37.03
2022-08-22T14:55:38.326Z,37.60
2022-08-22T14:56:38.388Z,38.15
2022-08-22T14:57:38.353Z,38.17
2022-08-22T14:58:38.878Z,37.90